Time;durP1;ratioP1;P1;durP2;ratioP2;P2;SDS_P1;SDS_P2;PMS_P1;PMS_P2;Temp;Humidity;BMP_temperature;BMP_pressure;BME280_temperature;BME280_humidity;BME280_pressure;Samples;Min_cycle;Max_cycle;Signal;HPM_P1;HPM_P2
2023/09/20 00:00:11;;;;;;;8.85;4.68;;;16.80;85.00;;;;;;5113923;28;20181;-88
2023/09/20 00:02:38;;;;;;;6.15;4.70;;;16.90;85.00;;;;;;5114077;28;20606;-89
2023/09/20 00:05:04;;;;;;;10.95;4.93;;;16.90;84.70;;;;;;5115230;28;20261;-89
2023/09/20 00:07:29;;;;;;;7.10;4.80;;;16.90;84.60;;;;;;5113994;28;20202;-89
2023/09/20 00:09:55;;;;;;;11.95;5.13;;;16.90;84.80;;;;;;5114192;28;20193;-90
2023/09/20 00:12:20;;;;;;;12.02;4.65;;;17.00;84.70;;;;;;5114215;28;20551;-89
2023/09/20 00:14:46;;;;;;;11.07;5.18;;;16.90;84.80;;;;;;5114102;28;20197;-89
2023/09/20 00:17:11;;;;;;;13.98;4.82;;;16.90;84.70;;;;;;5115442;28;20185;-89
2023/09/20 00:19:39;;;;;;;7.25;4.70;;;17.00;84.30;;;;;;5113723;28;20173;-89
2023/09/20 00:22:05;;;;;;;5.57;4.90;;;17.00;84.30;;;;;;5113836;28;20166;-89
2023/09/20 00:24:33;;;;;;;5.55;4.80;;;17.10;84.10;;;;;;5113470;28;20258;-89
2023/09/20 00:26:59;;;;;;;9.30;4.72;;;17.10;83.80;;;;;;5113584;28;20550;-89
2023/09/20 00:29:26;;;;;;;5.00;4.53;;;17.10;83.90;;;;;;5113913;28;20173;-90
2023/09/20 00:31:52;;;;;;;9.48;5.15;;;17.10;83.70;;;;;;5114666;28;20185;-89
2023/09/20 00:34:17;;;;;;;6.28;4.88;;;17.10;83.80;;;;;;5113461;28;20232;-89
2023/09/20 00:36:44;;;;;;;5.95;4.80;;;17.10;83.50;;;;;;5113495;28;20527;-89
2023/09/20 00:39:10;;;;;;;10.13;5.20;;;17.10;83.50;;;;;;5114967;28;20166;-90
2023/09/20 00:41:36;;;;;;;11.32;5.53;;;17.10;83.60;;;;;;5113231;28;20207;-89
2023/09/20 00:44:02;;;;;;;7.05;4.95;;;17.00;84.00;;;;;;5113258;28;20210;-89
2023/09/20 00:46:29;;;;;;;9.15;5.00;;;17.00;83.80;;;;;;5112523;28;20224;-88
2023/09/20 00:48:56;;;;;;;8.85;5.55;;;17.00;83.90;;;;;;5115050;28;20543;-89
2023/09/20 00:51:23;;;;;;;6.97;5.03;;;17.00;83.70;;;;;;5113831;28;20170;-89
2023/09/20 00:53:52;;;;;;;6.82;5.03;;;17.00;83.80;;;;;;5114280;28;20224;-89
2023/09/20 00:56:18;;;;;;;8.32;5.63;;;17.00;83.70;;;;;;5113407;27;20648;-89
2023/09/20 00:58:45;;;;;;;9.43;5.20;;;17.00;83.80;;;;;;5114102;28;20186;-89
2023/09/20 01:01:12;;;;;;;7.97;5.05;;;17.10;83.70;;;;;;5113235;28;20178;-89
2023/09/20 01:03:39;;;;;;;5.32;4.78;;;17.10;83.30;;;;;;5114107;28;20582;-89
2023/09/20 01:06:08;;;;;;;11.38;5.53;;;17.10;83.40;;;;;;5112915;28;20559;-90
2023/09/20 01:08:34;;;;;;;6.55;5.13;;;17.10;83.40;;;;;;5114087;28;20254;-89
2023/09/20 01:11:00;;;;;;;6.95;5.10;;;17.20;83.10;;;;;;5112908;28;20205;-89
2023/09/20 01:13:26;;;;;;;6.13;4.90;;;17.20;83.00;;;;;;5113012;28;20204;-90
2023/09/20 01:15:53;;;;;;;7.18;5.45;;;17.20;82.90;;;;;;5113240;28;20661;-88
2023/09/20 01:18:18;;;;;;;5.10;4.68;;;17.20;83.10;;;;;;5112965;28;20209;-89
2023/09/20 01:20:44;;;;;;;9.98;5.35;;;17.20;83.10;;;;;;5112879;28;20181;-89
2023/09/20 01:23:10;;;;;;;7.45;4.80;;;17.20;82.80;;;;;;5113803;28;20194;-89
2023/09/20 01:25:39;;;;;;;6.80;4.88;;;17.20;83.10;;;;;;5112667;28;20215;-89
2023/09/20 01:28:08;;;;;;;5.90;4.68;;;17.20;83.20;;;;;;5112855;28;20177;-90
2023/09/20 01:30:38;;;;;;;11.20;4.95;;;17.20;82.90;;;;;;5112773;28;20554;-89
2023/09/20 01:33:06;;;;;;;10.27;6.10;;;17.20;83.40;;;;;;5112490;28;20162;-88
2023/09/20 01:35:32;;;;;;;9.73;5.30;;;17.20;83.20;;;;;;5112530;28;20174;-89
2023/09/20 01:37:59;;;;;;;9.70;5.07;;;17.20;83.20;;;;;;5114063;28;20170;-89
2023/09/20 01:40:28;;;;;;;7.78;4.88;;;17.20;83.00;;;;;;5112830;28;20174;-89
2023/09/20 01:42:56;;;;;;;10.05;5.50;;;17.30;82.60;;;;;;5113850;28;20209;-89
2023/09/20 01:45:22;;;;;;;12.10;6.13;;;17.30;82.50;;;;;;5113932;28;20186;-90
2023/09/20 01:47:56;;;;;;;8.93;5.00;;;17.30;82.50;;;;;;5112837;28;20594;-89
2023/09/20 01:50:24;;;;;;;6.15;5.07;;;17.30;82.70;;;;;;5112527;28;20163;-89
2023/09/20 01:52:57;;;;;;;8.15;5.47;;;17.30;82.40;;;;;;5113374;28;20230;-89
2023/09/20 01:55:31;;;;;;;7.68;5.18;;;17.30;82.70;;;;;;5112522;28;20209;-89
2023/09/20 01:57:59;;;;;;;5.50;5.00;;;17.30;82.10;;;;;;5113406;28;20170;-89
2023/09/20 02:00:33;;;;;;;10.00;5.50;;;17.30;82.20;;;;;;5117017;28;20204;-90
2023/09/20 02:03:16;;;;;;;14.77;6.45;;;17.40;82.00;;;;;;5117876;28;20181;-91
2023/09/20 02:05:47;;;;;;;6.72;5.15;;;17.30;82.60;;;;;;5116474;28;20165;-89
2023/09/20 02:08:13;;;;;;;7.88;6.22;;;17.20;82.50;;;;;;5116790;28;20166;-89
2023/09/20 02:10:39;;;;;;;11.10;5.72;;;17.30;82.40;;;;;;5116848;28;20557;-90
2023/09/20 02:13:05;;;;;;;6.15;5.03;;;17.30;82.40;;;;;;5116500;28;20220;-90
2023/09/20 02:15:34;;;;;;;9.95;4.93;;;17.30;82.30;;;;;;5118389;28;20177;-89
2023/09/20 02:18:01;;;;;;;6.13;5.60;;;17.30;82.30;;;;;;5116127;28;20653;-89
2023/09/20 02:20:27;;;;;;;7.47;5.20;;;17.30;82.40;;;;;;5117561;27;20637;-89
2023/09/20 02:22:54;;;;;;;7.20;5.30;;;17.30;82.20;;;;;;5117205;28;20335;-89
2023/09/20 02:25:21;;;;;;;7.10;5.35;;;17.30;82.30;;;;;;5117155;28;20182;-89
2023/09/20 02:27:48;;;;;;;8.70;5.05;;;17.30;82.60;;;;;;5115953;28;20197;-89
2023/09/20 02:30:16;;;;;;;7.50;5.18;;;17.30;82.70;;;;;;5116011;28;20166;-89
2023/09/20 02:32:43;;;;;;;11.07;5.47;;;17.30;82.70;;;;;;5116156;28;20174;-89
2023/09/20 02:35:09;;;;;;;5.30;4.80;;;17.30;82.90;;;;;;5115867;28;20202;-90
2023/09/20 02:37:35;;;;;;;7.47;5.32;;;17.30;82.90;;;;;;5115749;28;20196;-90
2023/09/20 02:40:08;;;;;;;7.18;4.97;;;17.30;82.90;;;;;;5115762;28;20212;-89
2023/09/20 02:42:45;;;;;;;5.32;4.70;;;17.30;83.10;;;;;;5115545;28;20163;-89
2023/09/20 02:45:13;;;;;;;11.35;4.75;;;17.20;83.50;;;;;;5115888;28;20221;-89
2023/09/20 02:47:43;;;;;;;5.63;4.30;;;17.20;83.40;;;;;;5115540;28;20170;-89
2023/09/20 02:50:12;;;;;;;11.25;4.72;;;17.30;83.60;;;;;;5115548;28;20174;-90
2023/09/20 02:52:41;;;;;;;7.75;4.82;;;17.30;83.80;;;;;;5115341;28;20174;-90
2023/09/20 02:55:13;;;;;;;9.18;4.82;;;17.30;83.80;;;;;;5116375;28;20210;-90
2023/09/20 02:57:42;;;;;;;11.82;4.57;;;17.20;84.00;;;;;;5115329;28;20200;-89
2023/09/20 03:00:15;;;;;;;9.45;4.75;;;17.20;84.20;;;;;;5116504;28;20169;-90
2023/09/20 03:02:51;;;;;;;8.55;4.72;;;17.20;84.00;;;;;;5116753;28;20653;-90
2023/09/20 03:05:23;;;;;;;10.95;4.85;;;17.20;83.90;;;;;;5115170;28;20565;-90
2023/09/20 03:07:50;;;;;;;14.27;5.00;;;17.20;84.00;;;;;;5117095;28;20225;-88
2023/09/20 03:10:19;;;;;;;5.88;4.80;;;17.30;83.70;;;;;;5114648;28;20672;-89
2023/09/20 03:12:46;;;;;;;10.45;5.28;;;17.20;83.80;;;;;;5115280;28;20173;-89
2023/09/20 03:15:17;;;;;;;7.00;4.95;;;17.30;83.90;;;;;;5116403;28;20805;-89
2023/09/20 03:17:47;;;;;;;7.13;5.35;;;17.20;83.60;;;;;;5116095;28;20253;-90
2023/09/20 03:20:22;;;;;;;11.00;5.70;;;17.30;83.50;;;;;;5116620;28;20155;-89
2023/09/20 03:22:51;;;;;;;6.68;4.90;;;17.30;83.70;;;;;;5114626;28;20190;-90
2023/09/20 03:25:19;;;;;;;12.00;4.80;;;17.20;84.00;;;;;;5114771;28;20186;-89
2023/09/20 03:27:45;;;;;;;8.63;5.00;;;17.20;84.20;;;;;;5115827;28;20170;-90
2023/09/20 03:30:13;;;;;;;13.20;5.45;;;17.20;83.80;;;;;;5119092;28;20166;-92
2023/09/20 03:32:42;;;;;;;11.00;5.32;;;17.20;83.90;;;;;;5120127;27;20182;-89
2023/09/20 03:35:09;;;;;;;9.93;5.63;;;17.20;83.80;;;;;;5114858;28;20194;-90
2023/09/20 03:37:36;;;;;;;8.10;4.85;;;17.20;83.40;;;;;;5114520;28;20180;-89
2023/09/20 03:40:06;;;;;;;10.13;5.20;;;17.20;83.80;;;;;;5114840;28;20676;-89
2023/09/20 03:42:31;;;;;;;5.70;5.20;;;17.20;83.70;;;;;;5115884;28;20170;-89
2023/09/20 03:44:57;;;;;;;9.48;5.10;;;17.30;83.30;;;;;;5116052;28;20684;-89
2023/09/20 03:47:22;;;;;;;9.60;5.10;;;17.20;83.40;;;;;;5115539;28;20170;-89
2023/09/20 03:49:51;;;;;;;13.23;5.85;;;17.30;83.40;;;;;;5115609;28;20174;-90
2023/09/20 03:52:18;;;;;;;7.53;5.53;;;17.20;83.50;;;;;;5114789;28;20181;-89
2023/09/20 03:54:49;;;;;;;9.18;5.20;;;17.30;83.30;;;;;;5114190;28;20194;-89
2023/09/20 03:57:15;;;;;;;14.07;5.75;;;17.20;83.40;;;;;;5114303;28;20539;-89
2023/09/20 03:59:41;;;;;;;9.40;5.22;;;17.20;83.70;;;;;;5114377;28;20174;-90
2023/09/20 04:02:13;;;;;;;12.95;5.82;;;17.20;83.40;;;;;;5115294;28;20162;-89
2023/09/20 04:04:40;;;;;;;9.70;5.53;;;17.20;83.40;;;;;;5114165;28;20297;-90
2023/09/20 04:07:06;;;;;;;11.23;5.55;;;17.20;83.50;;;;;;5113916;28;20174;-89
2023/09/20 04:09:32;;;;;;;11.20;5.93;;;17.20;83.20;;;;;;5115384;28;20504;-90
2023/09/20 04:11:59;;;;;;;9.82;6.15;;;17.20;83.20;;;;;;5113989;28;20174;-90
2023/09/20 04:14:25;;;;;;;6.53;5.35;;;17.30;82.80;;;;;;5113711;28;20195;-90
2023/09/20 04:16:53;;;;;;;15.45;6.47;;;17.30;82.80;;;;;;5113985;28;20205;-90
2023/09/20 04:19:22;;;;;;;8.07;5.97;;;17.30;82.80;;;;;;5113490;28;20171;-89
2023/09/20 04:21:49;;;;;;;8.75;6.40;;;17.30;82.90;;;;;;5113835;28;20641;-89
2023/09/20 04:24:17;;;;;;;9.82;5.60;;;17.30;83.00;;;;;;5113391;28;20917;-90
2023/09/20 04:26:42;;;;;;;12.82;5.97;;;17.20;83.10;;;;;;5113562;28;20170;-89
2023/09/20 04:29:08;;;;;;;7.47;5.78;;;17.30;82.60;;;;;;5114081;28;20166;-89
2023/09/20 04:31:33;;;;;;;9.48;6.15;;;17.30;82.60;;;;;;5113736;28;20205;-90
2023/09/20 04:34:02;;;;;;;7.38;6.03;;;17.30;82.50;;;;;;5114890;28;20680;-90
2023/09/20 04:36:28;;;;;;;9.10;5.88;;;17.30;82.40;;;;;;5113362;28;20174;-89
2023/09/20 04:38:57;;;;;;;12.52;6.20;;;17.20;82.60;;;;;;5114993;28;20514;-90
2023/09/20 04:41:23;;;;;;;11.75;6.47;;;17.20;82.60;;;;;;5113213;28;20189;-90
2023/09/20 04:43:49;;;;;;;9.73;5.65;;;17.20;82.50;;;;;;5113389;28;20210;-90
2023/09/20 04:46:15;;;;;;;9.50;5.65;;;17.20;83.00;;;;;;5113278;28;20173;-90
2023/09/20 04:48:41;;;;;;;7.68;5.65;;;17.20;82.80;;;;;;5114576;28;20166;-90
2023/09/20 04:51:07;;;;;;;10.35;5.65;;;17.20;82.70;;;;;;5113170;28;20166;-89
2023/09/20 04:53:33;;;;;;;11.20;6.30;;;17.30;82.30;;;;;;5114366;28;20189;-90
2023/09/20 04:55:59;;;;;;;6.50;5.43;;;17.30;82.20;;;;;;5113154;28;20193;-89
2023/09/20 04:58:25;;;;;;;10.02;6.00;;;17.30;82.10;;;;;;5113383;28;20186;-89
2023/09/20 05:00:51;;;;;;;11.82;5.88;;;17.30;81.70;;;;;;5114514;28;20181;-89
2023/09/20 05:03:19;;;;;;;10.40;6.10;;;17.30;81.90;;;;;;5113145;28;20216;-89
2023/09/20 05:05:47;;;;;;;10.30;6.85;;;17.40;81.80;;;;;;5114397;28;20262;-90
2023/09/20 05:08:16;;;;;;;13.07;6.38;;;17.40;81.70;;;;;;5112981;28;20257;-90
2023/09/20 05:10:43;;;;;;;13.77;6.00;;;17.40;81.70;;;;;;5113372;28;20170;-89
2023/09/20 05:13:09;;;;;;;8.75;6.22;;;17.30;82.00;;;;;;5113005;28;20174;-90
2023/09/20 05:15:36;;;;;;;11.50;5.93;;;17.40;81.80;;;;;;5113198;28;20714;-90
2023/09/20 05:18:04;;;;;;;8.75;6.28;;;17.40;81.80;;;;;;5112755;28;20619;-89
2023/09/20 05:20:31;;;;;;;9.68;6.03;;;17.40;81.50;;;;;;5113868;28;20261;-89
2023/09/20 05:22:58;;;;;;;8.73;6.38;;;17.40;81.70;;;;;;5113594;28;20201;-90
2023/09/20 05:25:26;;;;;;;7.25;6.13;;;17.40;81.70;;;;;;5112996;28;20260;-90
2023/09/20 05:27:54;;;;;;;8.15;5.65;;;17.40;81.40;;;;;;5112895;28;20173;-90
2023/09/20 05:30:20;;;;;;;8.57;6.10;;;17.40;81.80;;;;;;5112846;28;20212;-90
2023/09/20 05:32:50;;;;;;;6.88;5.72;;;17.40;81.70;;;;;;5113182;28;20180;-90
2023/09/20 05:35:15;;;;;;;9.63;6.18;;;17.50;81.50;;;;;;5116964;28;20205;-90
2023/09/20 05:37:41;;;;;;;8.10;6.57;;;17.50;81.40;;;;;;5117136;28;20178;-89
2023/09/20 05:40:17;;;;;;;11.80;6.00;;;17.50;81.40;;;;;;5116926;28;20182;-90
2023/09/20 05:42:46;;;;;;;7.07;5.93;;;17.50;81.30;;;;;;5117035;28;20193;-90
2023/09/20 05:45:15;;;;;;;6.85;5.95;;;17.60;80.80;;;;;;5117054;28;20194;-88
2023/09/20 05:47:42;;;;;;;7.47;6.15;;;17.60;81.10;;;;;;5116705;28;20546;-88
2023/09/20 05:50:12;;;;;;;8.95;6.80;;;17.60;81.10;;;;;;5116706;28;20177;-90
2023/09/20 05:52:43;;;;;;;11.73;6.57;;;17.60;81.10;;;;;;5116728;28;20151;-90
2023/09/20 05:55:11;;;;;;;10.90;6.88;;;17.60;81.10;;;;;;5116612;28;20210;-90
2023/09/20 05:57:38;;;;;;;10.40;6.82;;;17.70;80.90;;;;;;5117092;28;20249;-91
2023/09/20 06:00:18;;;;;;;8.40;6.45;;;17.60;81.10;;;;;;5117004;28;20174;-88
2023/09/20 06:02:44;;;;;;;7.80;7.20;;;17.60;81.20;;;;;;5117799;28;20185;-89
2023/09/20 06:05:11;;;;;;;12.30;7.38;;;17.50;81.60;;;;;;5117828;28;20202;-90
2023/09/20 06:07:37;;;;;;;9.95;7.90;;;17.50;81.30;;;;;;5116733;28;20170;-91
2023/09/20 06:10:05;;;;;;;11.32;6.90;;;17.60;81.40;;;;;;5117233;28;20166;-90
2023/09/20 06:12:31;;;;;;;7.75;7.07;;;17.50;81.50;;;;;;5116625;28;20252;-89
2023/09/20 06:14:57;;;;;;;8.18;7.05;;;17.60;81.20;;;;;;5118345;28;20186;-89
2023/09/20 06:17:23;;;;;;;8.10;7.15;;;17.50;81.30;;;;;;5117586;28;20527;-90
2023/09/20 06:19:48;;;;;;;10.00;7.00;;;17.50;81.40;;;;;;5116433;28;20261;-89
2023/09/20 06:22:15;;;;;;;9.73;6.68;;;17.50;81.60;;;;;;5117051;28;20170;-90
2023/09/20 06:24:44;;;;;;;9.38;6.65;;;17.60;81.40;;;;;;5116074;28;20205;-90
2023/09/20 06:27:10;;;;;;;10.20;6.93;;;17.60;81.50;;;;;;5116479;28;20276;-90
2023/09/20 06:29:35;;;;;;;10.65;7.78;;;17.50;81.50;;;;;;5115980;28;20205;-88
2023/09/20 06:32:01;;;;;;;7.82;7.03;;;17.60;81.40;;;;;;5117218;28;20223;-89
2023/09/20 06:34:27;;;;;;;12.48;7.40;;;17.70;81.30;;;;;;5115684;28;20194;-89
2023/09/20 06:36:52;;;;;;;11.38;7.38;;;17.70;81.20;;;;;;5117813;28;20181;-91
2023/09/20 06:39:18;;;;;;;12.18;7.68;;;17.60;81.30;;;;;;5117152;28;20260;-91
2023/09/20 06:41:44;;;;;;;9.20;6.85;;;17.70;81.40;;;;;;5115985;28;20243;-92
2023/09/20 06:44:12;;;;;;;7.72;6.72;;;17.70;81.10;;;;;;5115964;28;20205;-90
2023/09/20 06:46:38;;;;;;;9.32;6.50;;;17.70;81.40;;;;;;5116218;28;20169;-92
2023/09/20 06:49:03;;;;;;;12.32;6.95;;;17.70;81.50;;;;;;5115676;28;20166;-91
2023/09/20 06:51:30;;;;;;;9.80;6.60;;;17.70;81.50;;;;;;5115586;28;20170;-91
2023/09/20 06:53:58;;;;;;;12.93;7.63;;;17.70;81.60;;;;;;5116998;28;20190;-90
2023/09/20 06:56:25;;;;;;;10.32;6.60;;;17.70;81.40;;;;;;5115511;28;20185;-91
2023/09/20 06:58:55;;;;;;;7.82;7.03;;;17.60;81.70;;;;;;5115336;28;20178;-91
2023/09/20 07:01:21;;;;;;;9.70;7.43;;;17.70;81.50;;;;;;5116503;28;20162;-91
2023/09/20 07:03:46;;;;;;;7.28;6.65;;;17.70;81.50;;;;;;5115295;28;20208;-91
2023/09/20 07:06:12;;;;;;;9.75;7.10;;;17.70;81.20;;;;;;5116834;28;20245;-90
2023/09/20 07:08:37;;;;;;;10.00;6.60;;;17.70;80.80;;;;;;5115100;28;20653;-91
2023/09/20 07:11:04;;;;;;;15.98;7.35;;;17.80;81.30;;;;;;5115279;28;20170;-91
2023/09/20 07:13:32;;;;;;;7.75;7.03;;;17.80;81.00;;;;;;5115036;28;20198;-91
2023/09/20 07:15:59;;;;;;;9.55;7.38;;;17.80;81.30;;;;;;5115095;28;20174;-90
2023/09/20 07:18:25;;;;;;;8.63;6.70;;;17.80;81.10;;;;;;5115854;28;20239;-91
2023/09/20 07:20:54;;;;;;;9.20;6.85;;;17.80;81.20;;;;;;5114948;28;20657;-90
2023/09/20 07:23:20;;;;;;;8.77;6.97;;;17.80;81.30;;;;;;5114630;28;20202;-91
2023/09/20 07:25:49;;;;;;;7.55;6.85;;;17.90;81.00;;;;;;5114895;28;20226;-90
2023/09/20 07:28:18;;;;;;;7.78;6.57;;;17.90;80.70;;;;;;5114754;28;20649;-89
2023/09/20 07:30:44;;;;;;;10.75;7.05;;;17.90;81.30;;;;;;5114893;28;20289;-91
2023/09/20 07:33:23;;;;;;;10.90;7.07;;;17.90;81.10;;;;;;5115955;28;20545;-91
2023/09/20 07:36:00;;;;;;;9.60;7.13;;;17.90;80.70;;;;;;5114736;28;20162;-90
2023/09/20 07:38:28;;;;;;;8.75;7.10;;;18.00;80.70;;;;;;5115936;28;20620;-92
2023/09/20 07:41:02;;;;;;;10.70;6.63;;;18.00;81.30;;;;;;5114525;28;20185;-90
2023/09/20 07:43:28;;;;;;;7.28;6.35;;;18.00;80.40;;;;;;5114655;28;20209;-90
2023/09/20 07:45:54;;;;;;;11.20;7.05;;;18.10;80.30;;;;;;5115908;28;20193;-89
2023/09/20 07:48:21;;;;;;;9.95;7.57;;;18.10;80.00;;;;;;5114624;28;20197;-90
2023/09/20 07:50:50;;;;;;;8.43;7.55;;;18.20;80.30;;;;;;5114273;28;20219;-90
2023/09/20 07:53:21;;;;;;;8.82;7.07;;;18.20;79.90;;;;;;5115522;27;20178;-90
2023/09/20 07:56:01;;;;;;;7.50;6.80;;;18.20;79.30;;;;;;5115101;28;20182;-90
2023/09/20 07:58:27;;;;;;;8.23;7.22;;;18.30;80.00;;;;;;5114445;28;20170;-90
2023/09/20 08:00:56;;;;;;;10.57;7.72;;;18.30;79.50;;;;;;5114245;28;20174;-90
2023/09/20 08:03:22;;;;;;;8.50;7.60;;;18.40;79.10;;;;;;5115330;28;20226;-89
2023/09/20 08:05:53;;;;;;;8.25;7.10;;;18.50;79.70;;;;;;5115441;28;20177;-90
2023/09/20 08:08:19;;;;;;;12.32;7.72;;;18.60;80.00;;;;;;5115250;28;20166;-90
2023/09/20 08:10:45;;;;;;;8.15;7.43;;;18.50;79.60;;;;;;5114012;28;20238;-89
2023/09/20 08:13:12;;;;;;;9.80;8.00;;;18.50;79.40;;;;;;5115694;28;20186;-89
2023/09/20 08:15:43;;;;;;;9.23;8.32;;;18.60;79.50;;;;;;5114990;28;20230;-89
2023/09/20 08:20:55;;;;;;;13.05;8.20;;;18.60;79.30;;;;;;5115347;28;20165;-91
2023/09/20 09:01:45;;;;;;;9.77;8.52;;;19.00;77.70;;;;;;5114372;28;20713;-89
2023/09/20 09:04:12;;;;;;;15.05;13.80;;;18.90;78.20;;;;;;5112655;28;20570;-90
2023/09/20 09:06:39;;;;;;;16.48;15.18;;;18.90;78.30;;;;;;5114445;28;20162;-89
2023/09/20 09:09:05;;;;;;;11.77;8.38;;;18.90;78.10;;;;;;5112256;28;20170;-88
2023/09/20 09:11:31;;;;;;;9.65;8.77;;;19.00;78.40;;;;;;5113078;28;20177;-89
2023/09/20 09:14:00;;;;;;;13.32;8.93;;;19.00;78.20;;;;;;5112736;28;20201;-88
2023/09/20 09:16:30;;;;;;;9.60;8.60;;;19.10;78.50;;;;;;5113785;28;20170;-89
2023/09/20 09:18:56;;;;;;;17.65;9.13;;;18.90;78.20;;;;;;5112675;28;20556;-89
2023/09/20 09:21:22;;;;;;;12.63;10.18;;;19.00;78.50;;;;;;5112620;28;20174;-89
2023/09/20 09:23:48;;;;;;;12.40;9.38;;;19.00;77.90;;;;;;5112371;28;20213;-90
2023/09/20 09:26:15;;;;;;;10.20;9.40;;;19.20;78.70;;;;;;5112585;28;20170;-89
2023/09/20 09:28:42;;;;;;;9.95;8.88;;;19.20;78.10;;;;;;5112536;28;20218;-89
2023/09/20 09:31:10;;;;;;;10.90;9.88;;;19.30;77.90;;;;;;5112595;28;20174;-89
2023/09/20 09:33:39;;;;;;;10.32;9.48;;;19.50;78.10;;;;;;5112537;28;20202;-89
2023/09/20 09:36:05;;;;;;;9.88;8.90;;;19.70;77.50;;;;;;5113943;28;20181;-89
2023/09/20 09:38:39;;;;;;;12.65;9.88;;;19.70;77.90;;;;;;5112803;28;20170;-92
2023/09/20 09:41:08;;;;;;;11.40;10.20;;;19.90;78.00;;;;;;5116586;28;20170;-91
2023/09/20 09:43:34;;;;;;;11.40;10.40;;;20.10;77.30;;;;;;5114886;28;20206;-91
2023/09/20 09:46:08;;;;;;;12.90;11.70;;;19.80;76.30;;;;;;5112994;28;20166;-88
2023/09/20 09:48:37;;;;;;;10.07;9.13;;;19.80;76.40;;;;;;5113895;28;20158;-88
2023/09/20 09:51:08;;;;;;;11.80;10.10;;;20.00;76.80;;;;;;5112681;28;20166;-87
2023/09/20 09:53:36;;;;;;;11.80;10.80;;;20.20;76.50;;;;;;5112631;28;20251;-89
2023/09/20 09:56:06;;;;;;;11.77;10.57;;;20.10;75.80;;;;;;5114302;28;20197;-87
2023/09/20 09:58:32;;;;;;;12.23;10.32;;;19.90;76.70;;;;;;5112813;28;20177;-88
2023/09/20 10:01:03;;;;;;;12.57;10.20;;;19.80;76.50;;;;;;5113758;28;20230;-88
2023/09/20 10:03:32;;;;;;;13.32;9.82;;;19.80;76.30;;;;;;5113701;28;20554;-88
2023/09/20 10:06:13;;;;;;;10.25;9.25;;;19.90;76.70;;;;;;5113654;28;20211;-88
2023/09/20 10:08:40;;;;;;;11.05;9.52;;;20.00;77.00;;;;;;5112520;28;20154;-88
2023/09/20 10:11:10;;;;;;;9.80;8.80;;;19.90;76.40;;;;;;5112496;28;20611;-89
2023/09/20 10:13:37;;;;;;;10.93;10.00;;;19.90;76.40;;;;;;5114504;28;20190;-88
2023/09/20 10:16:05;;;;;;;10.48;9.45;;;19.80;75.80;;;;;;5112968;28;20174;-90
2023/09/20 10:18:51;;;;;;;11.45;10.10;;;19.90;76.50;;;;;;5116293;28;20170;-88
2023/09/20 10:21:24;;;;;;;10.75;9.68;;;20.00;75.50;;;;;;5117018;28;20192;-89
2023/09/20 10:24:04;;;;;;;12.25;11.10;;;20.20;75.80;;;;;;5117023;28;20262;-88
2023/09/20 10:26:34;;;;;;;16.48;12.07;;;20.60;75.80;;;;;;5116666;28;20162;-89
2023/09/20 10:29:28;;;;;;;12.55;11.55;;;20.50;74.60;;;;;;5116422;28;20729;-89
2023/09/20 10:31:55;;;;;;;11.73;10.65;;;20.30;73.50;;;;;;5116030;28;20178;-89
2023/09/20 10:34:22;;;;;;;11.00;10.07;;;20.30;75.30;;;;;;5116880;28;20217;-89
2023/09/20 10:36:52;;;;;;;15.30;10.68;;;20.40;75.60;;;;;;5118143;28;20212;-90
2023/09/20 10:39:17;;;;;;;12.23;10.20;;;20.40;75.20;;;;;;5115875;28;20174;-90
2023/09/20 10:41:44;;;;;;;12.20;11.20;;;20.40;75.80;;;;;;5116818;28;20541;-89
2023/09/20 10:44:30;;;;;;;12.27;11.23;;;20.40;75.20;;;;;;5115363;28;20354;-89
2023/09/20 10:47:04;;;;;;;12.10;11.00;;;20.40;75.60;;;;;;5116786;28;20548;-88
2023/09/20 10:49:52;;;;;;;11.75;9.90;;;20.50;75.60;;;;;;5115580;28;20196;-89
2023/09/20 10:52:32;;;;;;;11.77;10.77;;;20.50;75.20;;;;;;5115448;28;20170;-88
2023/09/20 10:55:23;;;;;;;10.52;9.50;;;20.60;75.30;;;;;;5117868;28;20289;-90
2023/09/20 10:57:50;;;;;;;12.18;10.25;;;20.70;76.20;;;;;;5110464;28;20190;-89
2023/09/20 11:00:25;;;;;;;11.32;10.32;;;20.50;75.60;;;;;;5115639;28;20178;-89
2023/09/20 11:02:52;;;;;;;11.80;10.70;;;20.40;75.30;;;;;;5116450;28;20617;-89
2023/09/20 11:05:18;;;;;;;11.80;10.70;;;20.30;75.10;;;;;;5117436;28;20273;-89
2023/09/20 11:07:46;;;;;;;10.57;9.77;;;20.20;75.50;;;;;;5116879;28;20177;-90
2023/09/20 11:10:13;;;;;;;10.27;9.43;;;20.30;75.50;;;;;;5115128;28;20177;-90
2023/09/20 11:12:43;;;;;;;11.48;10.35;;;20.50;75.50;;;;;;5115248;28;20170;-90
2023/09/20 11:15:10;;;;;;;11.95;10.93;;;20.50;75.30;;;;;;5115433;28;20246;-89
2023/09/20 11:17:36;;;;;;;11.55;10.68;;;20.50;74.60;;;;;;5115191;28;20174;-89
2023/09/20 11:20:04;;;;;;;11.30;9.95;;;20.50;74.40;;;;;;5115127;28;20173;-89
2023/09/20 11:22:31;;;;;;;12.20;9.77;;;20.50;75.50;;;;;;5116494;28;20578;-90
2023/09/20 11:24:57;;;;;;;12.27;10.43;;;20.30;75.40;;;;;;5116079;28;20213;-90
2023/09/20 11:27:24;;;;;;;10.98;9.88;;;20.20;75.30;;;;;;5116198;28;20715;-90
2023/09/20 11:29:49;;;;;;;13.88;10.02;;;20.00;75.50;;;;;;5114869;28;20219;-91
2023/09/20 11:32:21;;;;;;;13.27;10.50;;;20.10;75.90;;;;;;5114180;28;20174;-91
2023/09/20 11:34:49;;;;;;;11.32;10.32;;;20.10;76.10;;;;;;5115869;28;20216;-90
2023/09/20 11:37:19;;;;;;;11.25;10.25;;;20.00;75.40;;;;;;5114888;28;20174;-90
2023/09/20 11:39:49;;;;;;;11.40;10.35;;;20.10;75.10;;;;;;5115095;28;20174;-90
2023/09/20 11:42:26;;;;;;;11.77;10.75;;;20.20;74.90;;;;;;5115902;28;20177;-89
2023/09/20 11:45:03;;;;;;;12.65;11.40;;;20.30;75.10;;;;;;5114538;28;20217;-90
2023/09/20 11:47:34;;;;;;;12.07;10.90;;;20.90;74.50;;;;;;5114705;28;20165;-90
2023/09/20 11:50:00;;;;;;;12.88;11.80;;;20.90;73.40;;;;;;5114522;28;20230;-90
2023/09/20 11:52:27;;;;;;;13.88;11.20;;;20.70;74.10;;;;;;5114723;28;20235;-90
2023/09/20 11:54:57;;;;;;;11.63;10.50;;;20.80;73.30;;;;;;5114095;28;20198;-90
2023/09/20 11:57:24;;;;;;;12.93;11.73;;;21.10;73.30;;;;;;5114542;28;20197;-90
2023/09/20 11:59:50;;;;;;;12.27;11.23;;;21.20;72.90;;;;;;5114463;28;20174;-90
2023/09/20 12:02:16;;;;;;;12.77;10.75;;;21.00;73.40;;;;;;5115630;28;20166;-90
2023/09/20 12:04:43;;;;;;;13.85;12.55;;;21.00;73.40;;;;;;5115509;28;20197;-91
2023/09/20 12:07:09;;;;;;;12.73;11.60;;;21.00;71.90;;;;;;5114540;28;20562;-90
2023/09/20 12:09:36;;;;;;;12.35;11.18;;;20.90;72.40;;;;;;5115502;28;20168;-89
2023/09/20 12:12:05;;;;;;;13.52;12.13;;;20.90;73.10;;;;;;5114687;28;20181;-90
2023/09/20 12:14:34;;;;;;;12.13;11.05;;;20.90;72.80;;;;;;5115740;28;20599;-90
2023/09/20 12:17:00;;;;;;;12.70;11.43;;;20.80;73.20;;;;;;5113994;28;20177;-90
2023/09/20 12:19:26;;;;;;;13.15;11.90;;;20.90;73.40;;;;;;5113866;28;20613;-90
2023/09/20 12:21:51;;;;;;;13.35;12.05;;;20.90;72.30;;;;;;5114166;28;20209;-89
2023/09/20 12:24:17;;;;;;;14.57;12.13;;;20.90;72.50;;;;;;5113687;28;20201;-90
2023/09/20 12:26:43;;;;;;;13.20;12.02;;;21.00;72.50;;;;;;5113940;28;20174;-90
2023/09/20 12:29:08;;;;;;;14.60;12.27;;;21.00;72.80;;;;;;5115006;28;20163;-90
2023/09/20 12:31:34;;;;;;;13.32;12.00;;;21.20;71.60;;;;;;5113994;28;20170;-90
2023/09/20 12:34:03;;;;;;;13.00;12.00;;;21.20;71.50;;;;;;5113837;28;20194;-90
2023/09/20 12:36:29;;;;;;;14.85;13.27;;;21.30;71.80;;;;;;5115284;28;20172;-90
2023/09/20 12:38:55;;;;;;;13.88;12.55;;;21.40;71.30;;;;;;5114619;28;20176;-90
2023/09/20 12:41:22;;;;;;;15.38;13.88;;;22.00;70.30;;;;;;5114029;28;20230;-90
2023/09/20 12:43:47;;;;;;;15.20;13.77;;;22.00;68.80;;;;;;5113482;28;20707;-90
2023/09/20 12:46:13;;;;;;;15.55;14.25;;;21.80;69.60;;;;;;5113574;28;20178;-90
2023/09/20 12:48:39;;;;;;;16.33;14.70;;;21.60;69.20;;;;;;5113280;28;20633;-90
2023/09/20 12:51:05;;;;;;;16.15;14.25;;;21.60;69.60;;;;;;5113296;28;20166;-90
2023/09/20 12:53:32;;;;;;;24.95;22.83;;;21.60;69.00;;;;;;5113219;28;20198;-90
2023/09/20 12:55:58;;;;;;;26.25;24.17;;;21.60;70.90;;;;;;5113216;28;20197;-90
2023/09/20 12:58:23;;;;;;;22.02;20.30;;;21.70;71.20;;;;;;5113408;28;20179;-91
2023/09/20 13:00:49;;;;;;;15.52;14.05;;;21.60;69.80;;;;;;5113368;28;20228;-90
2023/09/20 13:03:16;;;;;;;15.20;13.80;;;21.60;70.50;;;;;;5113206;28;20193;-89
2023/09/20 13:05:43;;;;;;;21.63;19.90;;;21.60;71.10;;;;;;5113238;28;20253;-90
2023/09/20 13:08:10;;;;;;;23.17;21.27;;;21.60;70.30;;;;;;5113268;28;20264;-90
2023/09/20 13:10:36;;;;;;;21.27;19.48;;;21.60;70.40;;;;;;5113156;28;20178;-89
2023/09/20 13:13:03;;;;;;;14.25;13.32;;;21.50;70.80;;;;;;5113113;28;20264;-90
2023/09/20 13:15:30;;;;;;;14.95;13.75;;;21.70;69.50;;;;;;5112946;28;20190;-89
2023/09/20 13:17:56;;;;;;;20.38;18.88;;;21.90;69.80;;;;;;5114064;28;20174;-89
2023/09/20 13:20:24;;;;;;;23.30;21.38;;;22.00;70.20;;;;;;5114135;28;20162;-90
2023/09/20 13:22:52;;;;;;;22.42;20.83;;;22.00;68.80;;;;;;5114412;28;20162;-90